Аэропорт: Одесса. Одесса

ICAO: UKOO

METAR:
2019/03/26 13:00
UKOO 261300Z 31004MPS 9999 -RA SCT036 08/05 Q1014 R34/290054 NOSIG
METAR:
2019/03/26 12:15
TAF UKOO 261110Z 2612/2712 31003G08MPS 2100 -SHRA BR SCT004 BKN007 SCT017CB TX08/2612Z TN01/2703Z PROB40 
      TEMPO 2612/2618 1000 TSRA 
      TEMPO 2618/2624 34006G13MPS 
      BECMG 2703/2704 31007G14MPS